createdAt,value
2023-07-25T00:01:54.211Z,2.10
2023-07-25T00:04:21.134Z,1.90
2023-07-25T00:06:48.039Z,1.70
2023-07-25T00:09:14.847Z,1.80
2023-07-25T00:11:41.669Z,1.95
2023-07-25T00:14:08.486Z,1.85
2023-07-25T00:16:35.372Z,1.65
2023-07-25T00:19:02.199Z,1.98
2023-07-25T00:21:29.131Z,1.60
2023-07-25T00:23:55.991Z,1.85
2023-07-25T00:26:22.897Z,1.98
2023-07-25T00:28:49.652Z,1.77
2023-07-25T00:31:16.469Z,2.10
2023-07-25T00:33:43.423Z,1.80
2023-07-25T00:36:10.463Z,2.10
2023-07-25T00:38:37.312Z,1.83
2023-07-25T00:41:04.181Z,1.83
2023-07-25T00:43:31.207Z,1.63
2023-07-25T00:45:58.351Z,1.95
2023-07-25T00:48:25.420Z,1.70
2023-07-25T00:50:52.264Z,1.65
2023-07-25T00:53:19.309Z,1.67
2023-07-25T00:55:46.188Z,1.50
2023-07-25T00:58:13.069Z,1.63
2023-07-25T01:00:40.107Z,1.50
2023-07-25T01:03:07.872Z,1.50
2023-07-25T01:05:37.876Z,1.55
2023-07-25T01:08:04.896Z,1.63
2023-07-25T01:10:33.688Z,1.80
2023-07-25T01:13:00.565Z,1.60
2023-07-25T01:15:28.794Z,1.80
2023-07-25T01:17:55.856Z,1.80
2023-07-25T01:20:23.625Z,1.60
2023-07-25T01:22:52.095Z,1.80
2023-07-25T01:25:18.964Z,1.70
2023-07-25T01:27:45.862Z,1.50
2023-07-25T01:30:12.872Z,1.80
2023-07-25T01:32:39.861Z,1.80
2023-07-25T01:35:07.958Z,1.80
2023-07-25T01:37:34.894Z,1.55
2023-07-25T01:40:01.808Z,1.70
2023-07-25T01:42:28.693Z,1.67
2023-07-25T01:44:55.551Z,1.75
2023-07-25T01:47:27.345Z,1.77
2023-07-25T01:49:54.675Z,1.80
2023-07-25T01:52:21.981Z,1.80
2023-07-25T01:54:51.143Z,1.80
2023-07-25T01:57:18.483Z,1.75
2023-07-25T01:59:45.362Z,1.63
2023-07-25T02:02:12.250Z,1.73
2023-07-25T02:04:39.071Z,1.98
2023-07-25T02:07:06.233Z,1.80
2023-07-25T02:09:33.078Z,1.80
2023-07-25T02:11:59.925Z,1.70
2023-07-25T02:14:26.882Z,1.77
2023-07-25T02:16:54.345Z,1.83
2023-07-25T02:19:21.708Z,1.77
2023-07-25T02:21:48.604Z,1.70
2023-07-25T02:24:15.494Z,1.85
2023-07-25T02:26:42.393Z,2.15
2023-07-25T02:29:09.291Z,1.90
2023-07-25T02:31:36.493Z,1.90
2023-07-25T02:34:03.576Z,2.20
2023-07-25T02:36:30.533Z,1.70
2023-07-25T02:38:57.352Z,2.00
2023-07-25T02:41:25.739Z,2.10
2023-07-25T02:43:52.696Z,2.15
2023-07-25T02:46:19.661Z,1.90
2023-07-25T02:48:46.488Z,1.90
2023-07-25T02:51:13.865Z,1.75
2023-07-25T02:53:40.898Z,1.80
2023-07-25T02:56:07.807Z,1.95
2023-07-25T02:58:34.725Z,1.90
2023-07-25T03:01:01.712Z,2.22
2023-07-25T03:03:28.671Z,2.13
2023-07-25T03:05:55.693Z,1.80
2023-07-25T03:08:22.560Z,1.80
2023-07-25T03:10:49.436Z,2.10
2023-07-25T03:13:16.613Z,1.80
2023-07-25T03:15:43.519Z,1.83
2023-07-25T03:18:10.430Z,1.80
2023-07-25T03:20:37.331Z,2.20
2023-07-25T03:23:04.310Z,2.13
2023-07-25T03:25:31.118Z,2.30
2023-07-25T03:27:57.915Z,1.80
2023-07-25T03:30:24.838Z,2.10
2023-07-25T03:32:51.645Z,1.77
2023-07-25T03:35:18.578Z,2.00
2023-07-25T03:37:45.391Z,1.90
2023-07-25T03:40:12.417Z,2.00
2023-07-25T03:42:39.270Z,2.22
2023-07-25T03:45:06.564Z,2.10
2023-07-25T03:47:34.169Z,1.90
2023-07-25T03:50:01.015Z,2.30
2023-07-25T03:52:28.557Z,1.95
2023-07-25T03:54:55.465Z,2.15
2023-07-25T03:57:22.298Z,2.10
2023-07-25T03:59:49.165Z,2.03
2023-07-25T04:02:22.192Z,2.08
2023-07-25T04:04:52.537Z,2.10
2023-07-25T04:07:19.489Z,2.20
2023-07-25T04:09:46.312Z,2.10
2023-07-25T04:12:13.178Z,2.15
2023-07-25T04:14:41.943Z,2.13
2023-07-25T04:17:08.826Z,2.20
2023-07-25T04:19:35.679Z,2.00
2023-07-25T04:22:02.582Z,2.10
2023-07-25T04:24:29.446Z,2.13
2023-07-25T04:26:56.301Z,2.20
2023-07-25T04:29:23.143Z,2.00
2023-07-25T04:31:49.973Z,2.30
2023-07-25T04:34:16.852Z,2.40
2023-07-25T04:36:43.803Z,2.53
2023-07-25T04:39:10.747Z,2.20
2023-07-25T04:41:37.666Z,2.20
2023-07-25T04:44:04.716Z,2.30
2023-07-25T04:46:31.686Z,2.20
2023-07-25T04:48:58.559Z,2.30
2023-07-25T04:51:25.525Z,2.33
2023-07-25T04:53:55.224Z,2.30
2023-07-25T04:56:22.034Z,2.30
2023-07-25T04:58:48.885Z,1.92
2023-07-25T05:01:16.496Z,2.03
2023-07-25T05:03:43.489Z,2.08
2023-07-25T05:06:10.336Z,2.30
2023-07-25T05:08:37.259Z,2.17
2023-07-25T05:11:04.500Z,2.28
2023-07-25T05:13:31.379Z,2.17
2023-07-25T05:15:58.312Z,2.30
2023-07-25T05:18:25.267Z,2.10
2023-07-25T05:20:52.063Z,2.22
2023-07-25T05:23:18.971Z,2.13
2023-07-25T05:25:49.012Z,2.10
2023-07-25T05:28:16.250Z,2.45
2023-07-25T05:30:43.096Z,2.20
2023-07-25T05:33:09.977Z,2.05
2023-07-25T05:35:38.669Z,2.58
2023-07-25T05:38:09.319Z,2.28
2023-07-25T05:40:36.631Z,2.25
2023-07-25T05:43:04.312Z,2.25
2023-07-25T05:45:31.376Z,2.30
2023-07-25T05:47:58.322Z,2.50
2023-07-25T05:50:25.204Z,2.00
2023-07-25T05:52:52.038Z,2.40
2023-07-25T05:55:18.915Z,2.25
2023-07-25T05:57:45.840Z,2.22
2023-07-25T06:00:13.321Z,2.40
2023-07-25T06:02:40.224Z,2.50
2023-07-25T06:05:08.273Z,2.20
2023-07-25T06:07:35.118Z,2.40
2023-07-25T06:10:03.195Z,2.45
2023-07-25T06:12:30.434Z,2.40
2023-07-25T06:14:57.265Z,2.33
2023-07-25T06:17:24.272Z,2.13
2023-07-25T06:19:51.098Z,2.30
2023-07-25T06:22:18.061Z,2.65
2023-07-25T06:24:45.020Z,2.65
2023-07-25T06:27:11.843Z,2.30
2023-07-25T06:29:38.670Z,2.53
2023-07-25T06:32:05.868Z,2.47
2023-07-25T06:34:32.696Z,2.33
2023-07-25T06:36:59.487Z,2.42
2023-07-25T06:39:26.365Z,2.55
2023-07-25T06:41:53.227Z,2.38
2023-07-25T06:44:21.140Z,2.80
2023-07-25T06:46:48.200Z,2.50
2023-07-25T06:49:15.275Z,3.05
2023-07-25T06:51:42.113Z,2.80
2023-07-25T06:54:09.049Z,2.10
2023-07-25T06:56:35.891Z,2.50
2023-07-25T06:59:02.814Z,2.22
2023-07-25T07:01:30.136Z,2.55
2023-07-25T07:03:57.230Z,2.53
2023-07-25T07:06:24.055Z,2.20
2023-07-25T07:08:50.865Z,2.38
2023-07-25T07:11:18.372Z,2.30
2023-07-25T07:13:45.248Z,2.25
2023-07-25T07:16:12.108Z,2.45
2023-07-25T07:18:39.066Z,2.35
2023-07-25T07:21:06.766Z,2.35
2023-07-25T07:23:33.726Z,2.00
2023-07-25T07:26:00.571Z,2.42
2023-07-25T07:28:28.176Z,2.35
2023-07-25T07:30:55.045Z,2.38
2023-07-25T07:33:23.331Z,2.40
2023-07-25T07:35:50.202Z,2.35
2023-07-25T07:38:17.024Z,2.50
2023-07-25T07:40:43.860Z,2.40
2023-07-25T07:43:10.765Z,2.03
2023-07-25T07:45:37.578Z,2.30
2023-07-25T07:48:04.704Z,2.28
2023-07-25T07:50:34.416Z,2.20
2023-07-25T07:53:02.425Z,2.28
2023-07-25T07:55:29.859Z,2.30
2023-07-25T07:57:56.861Z,2.38
2023-07-25T08:00:25.195Z,1.98
2023-07-25T08:02:53.331Z,2.40
2023-07-25T08:05:20.265Z,1.95
2023-07-25T08:07:47.574Z,2.17
2023-07-25T08:10:14.740Z,2.33
2023-07-25T08:12:42.070Z,2.10
2023-07-25T08:15:09.612Z,1.90
2023-07-25T08:17:36.721Z,2.00
2023-07-25T08:20:04.077Z,2.20
2023-07-25T08:22:30.901Z,2.08
2023-07-25T08:24:59.419Z,1.95
2023-07-25T08:27:26.372Z,2.15
2023-07-25T08:29:53.300Z,2.00
2023-07-25T08:32:20.182Z,2.03
2023-07-25T08:34:47.164Z,2.03
2023-07-25T08:37:13.996Z,2.22
2023-07-25T08:39:40.811Z,2.03
2023-07-25T08:42:10.701Z,1.98
2023-07-25T08:44:38.389Z,1.80
2023-07-25T08:47:11.103Z,1.92
2023-07-25T08:49:41.553Z,1.85
2023-07-25T08:52:09.427Z,2.08
2023-07-25T08:54:38.292Z,2.20
2023-07-25T08:57:05.780Z,2.05
2023-07-25T08:59:33.083Z,2.30
2023-07-25T09:02:00.550Z,2.17
2023-07-25T09:04:29.510Z,2.17
2023-07-25T09:06:56.376Z,2.35
2023-07-25T09:09:24.754Z,3.20
2023-07-25T09:11:51.677Z,3.20
2023-07-25T09:14:18.626Z,2.70
2023-07-25T09:16:45.507Z,2.53
2023-07-25T09:19:13.855Z,2.63
2023-07-25T09:21:51.710Z,2.60
2023-07-25T09:24:19.011Z,3.45
2023-07-25T09:26:53.535Z,2.78
2023-07-25T09:29:22.160Z,2.05
2023-07-25T09:31:49.141Z,2.00
2023-07-25T09:34:24.476Z,1.70
2023-07-25T09:36:52.683Z,1.92
2023-07-25T09:39:19.532Z,1.77
2023-07-25T09:41:46.954Z,1.60
2023-07-25T09:44:14.317Z,1.70
2023-07-25T09:46:52.317Z,1.73
2023-07-25T09:49:22.356Z,1.70
2023-07-25T09:52:04.482Z,2.30
2023-07-25T09:54:31.316Z,1.75
2023-07-25T09:56:59.016Z,1.80
2023-07-25T09:59:26.037Z,1.90
2023-07-25T10:01:53.676Z,1.90
2023-07-25T10:04:23.382Z,1.70
2023-07-25T10:06:50.750Z,1.42
2023-07-25T10:09:18.864Z,1.02
2023-07-25T10:11:47.659Z,1.40
2023-07-25T10:14:15.115Z,1.20
2023-07-25T10:16:42.368Z,1.25
2023-07-25T10:19:09.398Z,1.17
2023-07-25T10:21:52.594Z,0.80
2023-07-25T10:24:21.416Z,0.70
2023-07-25T10:26:58.450Z,0.90
2023-07-25T10:29:38.896Z,1.08
2023-07-25T10:32:08.286Z,0.80
2023-07-25T10:34:48.274Z,0.90
2023-07-25T10:37:24.714Z,0.75
2023-07-25T10:40:17.647Z,0.90
2023-07-25T10:43:04.352Z,1.00
2023-07-25T10:45:34.529Z,0.82
2023-07-25T10:48:01.821Z,1.08
2023-07-25T10:50:46.889Z,0.63
2023-07-25T10:53:18.120Z,0.98
2023-07-25T10:56:11.606Z,0.90
2023-07-25T10:59:00.968Z,0.90
2023-07-25T11:01:41.527Z,1.20
2023-07-25T11:04:29.336Z,0.95
2023-07-25T11:07:14.723Z,1.20
2023-07-25T11:09:45.657Z,1.30
2023-07-25T11:12:13.404Z,1.13
2023-07-25T11:14:50.606Z,1.42
2023-07-25T11:17:17.539Z,1.30
2023-07-25T11:19:44.403Z,1.50
2023-07-25T11:22:13.031Z,1.38
2023-07-25T11:24:48.378Z,1.30
2023-07-25T11:27:15.851Z,1.40
2023-07-25T11:29:42.851Z,1.20
2023-07-25T11:32:09.925Z,1.23
2023-07-25T11:34:36.852Z,1.58
2023-07-25T11:37:12.962Z,1.58
2023-07-25T11:39:39.898Z,1.50
2023-07-25T11:42:09.436Z,1.50
2023-07-25T11:44:36.462Z,1.50
2023-07-25T11:47:03.809Z,1.50
2023-07-25T11:49:47.491Z,1.50
2023-07-25T11:52:17.050Z,2.33
2023-07-25T11:54:44.028Z,1.67
2023-07-25T11:57:12.266Z,1.70
2023-07-25T11:59:42.784Z,1.70
2023-07-25T12:02:11.217Z,1.52
2023-07-25T12:04:45.588Z,1.58
2023-07-25T12:07:16.245Z,1.60
2023-07-25T12:09:56.326Z,1.90
2023-07-25T12:12:23.351Z,1.70
2023-07-25T12:14:58.689Z,1.60
2023-07-25T12:17:42.248Z,1.83
2023-07-25T12:20:19.910Z,1.77
2023-07-25T12:22:47.707Z,1.98
2023-07-25T12:25:19.295Z,1.90
2023-07-25T12:27:47.880Z,1.80
2023-07-25T12:30:15.502Z,1.98
2023-07-25T12:32:42.427Z,2.00
2023-07-25T12:35:11.138Z,1.80
2023-07-25T12:37:37.967Z,1.73
2023-07-25T12:40:05.446Z,2.00
2023-07-25T12:42:32.254Z,1.80
2023-07-25T12:45:03.956Z,1.85
2023-07-25T12:47:30.824Z,1.80
2023-07-25T12:49:57.704Z,1.92
2023-07-25T12:52:24.517Z,1.70
2023-07-25T12:54:51.395Z,1.55
2023-07-25T12:57:18.361Z,2.75
2023-07-25T12:59:46.408Z,2.35
2023-07-25T13:02:19.543Z,2.20
2023-07-25T13:04:46.753Z,2.30
2023-07-25T13:07:14.883Z,2.20
2023-07-25T13:09:41.836Z,4.00
2023-07-25T13:12:09.041Z,3.88
2023-07-25T13:14:35.976Z,3.55
2023-07-25T13:17:02.992Z,3.75
2023-07-25T13:19:32.435Z,3.08
2023-07-25T13:21:59.347Z,2.90
2023-07-25T13:24:26.348Z,2.22
2023-07-25T13:26:53.270Z,1.90
2023-07-25T13:29:20.338Z,1.80
2023-07-25T13:31:47.262Z,1.80
2023-07-25T13:34:14.338Z,1.60
2023-07-25T13:36:41.300Z,1.70
2023-07-25T13:39:08.732Z,1.70
2023-07-25T13:41:35.740Z,1.80
2023-07-25T13:44:02.867Z,1.50
2023-07-25T13:46:29.939Z,1.45
2023-07-25T13:48:56.903Z,1.50
2023-07-25T13:51:24.029Z,1.60
2023-07-25T13:53:51.045Z,1.85
2023-07-25T13:56:20.592Z,1.70
2023-07-25T13:58:47.587Z,1.60
2023-07-25T14:01:14.950Z,1.50
2023-07-25T14:03:43.443Z,1.90
2023-07-25T14:06:10.674Z,1.70
2023-07-25T14:08:37.695Z,1.70
2023-07-25T14:11:04.671Z,1.70
2023-07-25T14:13:32.075Z,2.13
2023-07-25T14:16:00.588Z,1.60
2023-07-25T14:18:27.606Z,1.77
2023-07-25T14:20:56.609Z,1.73
2023-07-25T14:23:23.815Z,1.77
2023-07-25T14:25:51.145Z,1.88
2023-07-25T14:28:18.056Z,2.00
2023-07-25T14:30:44.984Z,2.08
2023-07-25T14:33:13.897Z,2.05
2023-07-25T14:35:43.265Z,1.77
2023-07-25T14:38:14.027Z,2.00
2023-07-25T14:40:41.686Z,1.73
2023-07-25T14:43:08.739Z,1.75
2023-07-25T14:45:35.843Z,1.60
2023-07-25T14:48:05.996Z,1.58
2023-07-25T14:50:34.062Z,1.60
2023-07-25T14:53:01.120Z,1.70
2023-07-25T14:55:29.324Z,1.67
2023-07-25T14:57:56.241Z,1.60
2023-07-25T15:00:25.493Z,1.50
2023-07-25T15:02:52.776Z,1.40
2023-07-25T15:05:20.025Z,1.30
2023-07-25T15:07:50.077Z,1.40
2023-07-25T15:10:17.067Z,1.58
2023-07-25T15:12:44.116Z,1.45
2023-07-25T15:15:11.732Z,1.70
2023-07-25T15:17:38.884Z,1.58
2023-07-25T15:20:11.629Z,2.00
2023-07-25T15:22:39.029Z,1.60
2023-07-25T15:25:06.544Z,1.40
2023-07-25T15:27:34.133Z,1.40
2023-07-25T15:30:01.348Z,1.75
2023-07-25T15:32:28.615Z,1.40
2023-07-25T15:34:55.643Z,1.40
2023-07-25T15:37:22.584Z,1.58
2023-07-25T15:39:49.635Z,1.60
2023-07-25T15:42:16.689Z,1.50
2023-07-25T15:44:43.732Z,1.50
2023-07-25T15:47:10.809Z,1.50
2023-07-25T15:52:28.051Z,1.25
2023-07-25T15:54:55.439Z,1.52
2023-07-25T15:57:22.473Z,1.50
2023-07-25T15:59:49.528Z,1.55
2023-07-25T16:02:17.070Z,1.50
2023-07-25T16:04:44.016Z,1.35
2023-07-25T16:07:10.988Z,1.70
2023-07-25T16:09:38.838Z,1.42
2023-07-25T16:12:07.475Z,1.88
2023-07-25T16:14:34.384Z,3.20
2023-07-25T16:17:01.406Z,3.08
2023-07-25T16:19:28.716Z,2.50
2023-07-25T16:21:55.610Z,2.35
2023-07-25T16:24:22.730Z,2.75
2023-07-25T16:26:49.617Z,5.88
2023-07-25T16:29:19.630Z,3.25
2023-07-25T16:31:51.321Z,4.30
2023-07-25T16:34:18.652Z,3.20
2023-07-25T16:36:45.546Z,2.92
2023-07-25T16:39:12.541Z,2.70
2023-07-25T16:41:39.484Z,2.00
2023-07-25T16:44:06.390Z,2.00
2023-07-25T16:46:33.416Z,3.58
2023-07-25T16:49:00.354Z,6.57
2023-07-25T16:51:37.053Z,6.55
2023-07-25T16:54:03.988Z,2.72
2023-07-25T16:56:31.210Z,4.97
2023-07-25T16:58:58.470Z,1.88
2023-07-25T17:01:25.358Z,1.50
2023-07-25T17:03:52.395Z,5.13
2023-07-25T17:06:19.276Z,6.72
2023-07-25T17:08:47.187Z,6.70
2023-07-25T17:11:15.993Z,5.05
2023-07-25T17:13:43.131Z,1.90
2023-07-25T17:16:10.967Z,1.40
2023-07-25T17:18:37.886Z,2.13
2023-07-25T17:21:04.814Z,1.58
2023-07-25T17:23:31.762Z,1.67
2023-07-25T17:25:58.624Z,2.10
2023-07-25T17:28:25.863Z,1.90
2023-07-25T17:30:52.872Z,1.70
2023-07-25T17:33:19.787Z,1.50
2023-07-25T17:35:46.737Z,1.20
2023-07-25T17:38:15.148Z,1.20
2023-07-25T17:40:42.980Z,1.00
2023-07-25T17:43:09.864Z,1.10
2023-07-25T17:45:39.610Z,0.98
2023-07-25T17:48:06.954Z,1.02
2023-07-25T17:50:33.853Z,1.00
2023-07-25T17:53:00.936Z,1.25
2023-07-25T17:55:28.482Z,1.10
2023-07-25T17:57:55.337Z,1.25
2023-07-25T18:00:22.307Z,1.00
2023-07-25T18:02:49.320Z,1.15
2023-07-25T18:05:16.306Z,1.10
2023-07-25T18:07:43.173Z,1.13
2023-07-25T18:10:10.202Z,1.30
2023-07-25T18:12:37.086Z,1.50
2023-07-25T18:15:04.386Z,1.65
2023-07-25T18:17:31.305Z,1.60
2023-07-25T18:19:58.155Z,1.70
2023-07-25T18:22:27.107Z,1.35
2023-07-25T18:24:54.025Z,1.30
2023-07-25T18:27:20.977Z,1.15
2023-07-25T18:29:47.806Z,0.98
2023-07-25T18:32:14.688Z,1.10
2023-07-25T18:34:41.539Z,1.05
2023-07-25T18:37:08.676Z,1.00
2023-07-25T18:39:35.588Z,1.20
2023-07-25T18:42:02.575Z,1.45
2023-07-25T18:44:29.506Z,1.13
2023-07-25T18:46:56.372Z,1.20
2023-07-25T18:49:24.823Z,1.20
2023-07-25T18:51:52.232Z,1.17
2023-07-25T18:54:19.147Z,1.08
2023-07-25T18:56:46.028Z,1.20
2023-07-25T18:59:12.864Z,1.17
2023-07-25T19:01:39.778Z,1.40
2023-07-25T19:04:06.914Z,1.20
2023-07-25T19:06:34.254Z,1.00
2023-07-25T19:09:01.433Z,1.20
2023-07-25T19:11:28.297Z,1.17
2023-07-25T19:13:55.195Z,1.35
2023-07-25T19:16:22.301Z,1.42
2023-07-25T19:18:51.659Z,1.40
2023-07-25T19:21:19.437Z,1.45
2023-07-25T19:23:46.445Z,2.13
2023-07-25T19:26:13.283Z,1.63
2023-07-25T19:28:40.200Z,1.88
2023-07-25T19:31:07.813Z,2.72
2023-07-25T19:33:34.888Z,2.50
2023-07-25T19:36:01.982Z,1.60
2023-07-25T19:38:29.250Z,1.77
2023-07-25T19:40:56.264Z,1.80
2023-07-25T19:43:23.444Z,1.80
2023-07-25T19:45:50.439Z,2.70
2023-07-25T19:48:18.279Z,1.63
2023-07-25T19:50:48.091Z,1.90
2023-07-25T19:53:15.904Z,1.90
2023-07-25T19:55:42.919Z,1.70
2023-07-25T19:58:09.792Z,2.60
2023-07-25T20:00:38.154Z,2.10
2023-07-25T20:03:05.513Z,2.97
2023-07-25T20:05:32.631Z,1.70
2023-07-25T20:08:00.775Z,1.83
2023-07-25T20:10:27.673Z,1.70
2023-07-25T20:12:54.506Z,2.30
2023-07-25T20:15:21.529Z,2.35
2023-07-25T20:17:51.670Z,1.83
2023-07-25T20:20:18.624Z,2.10
2023-07-25T20:22:45.556Z,1.90
2023-07-25T20:25:16.208Z,1.73
2023-07-25T20:27:43.115Z,2.08
2023-07-25T20:30:12.344Z,1.92
2023-07-25T20:32:39.488Z,1.77
2023-07-25T20:35:06.591Z,1.90
2023-07-25T20:37:33.726Z,2.38
2023-07-25T20:40:00.549Z,2.50
2023-07-25T20:42:27.466Z,1.88
2023-07-25T20:44:54.284Z,1.70
2023-07-25T20:47:21.108Z,2.03
2023-07-25T20:49:48.012Z,2.10
2023-07-25T20:52:14.838Z,1.80
2023-07-25T20:54:41.653Z,1.88
2023-07-25T20:57:08.476Z,2.00
2023-07-25T20:59:35.315Z,2.50
2023-07-25T21:02:04.680Z,2.00
2023-07-25T21:04:31.528Z,2.13
2023-07-25T21:06:58.412Z,2.13
2023-07-25T21:09:28.187Z,2.03
2023-07-25T21:11:55.122Z,2.70
2023-07-25T21:14:22.368Z,2.10
2023-07-25T21:16:51.405Z,2.20
2023-07-25T21:19:18.351Z,1.90
2023-07-25T21:21:45.222Z,2.17
2023-07-25T21:24:12.111Z,2.00
2023-07-25T21:26:38.963Z,2.75
2023-07-25T21:29:05.808Z,2.30
2023-07-25T21:31:32.688Z,1.95
2023-07-25T21:34:02.413Z,2.10
2023-07-25T21:36:30.569Z,2.20
2023-07-25T21:38:57.630Z,2.20
2023-07-25T21:41:24.504Z,2.05
2023-07-25T21:43:51.408Z,1.92
2023-07-25T21:46:18.299Z,1.92
2023-07-25T21:48:46.068Z,2.00
2023-07-25T21:51:13.125Z,2.05
2023-07-25T21:53:40.169Z,2.33
2023-07-25T21:56:07.020Z,2.10
2023-07-25T21:58:33.891Z,2.30
2023-07-25T22:01:00.801Z,1.95
2023-07-25T22:03:33.076Z,2.30
2023-07-25T22:06:00.719Z,2.30
2023-07-25T22:08:27.940Z,2.30
2023-07-25T22:10:55.710Z,2.50
2023-07-25T22:13:23.882Z,1.92
2023-07-25T22:15:50.934Z,2.15
2023-07-25T22:18:17.958Z,2.05
2023-07-25T22:20:51.568Z,2.20
2023-07-25T22:23:20.372Z,2.10
2023-07-25T22:25:47.302Z,3.20
2023-07-25T22:28:14.149Z,2.10
2023-07-25T22:30:40.994Z,2.40
2023-07-25T22:33:07.840Z,2.13
2023-07-25T22:35:35.991Z,2.20
2023-07-25T22:38:04.246Z,2.70
2023-07-25T22:40:31.365Z,2.30
2023-07-25T22:42:58.201Z,2.35
2023-07-25T22:45:27.019Z,2.10
2023-07-25T22:47:54.508Z,2.10
2023-07-25T22:50:21.749Z,2.20
2023-07-25T22:52:49.136Z,2.20
2023-07-25T22:55:19.063Z,1.90
2023-07-25T22:57:46.346Z,2.20
2023-07-25T23:00:13.577Z,2.00
2023-07-25T23:02:40.912Z,2.05
2023-07-25T23:05:08.271Z,2.17
2023-07-25T23:07:35.354Z,2.33
2023-07-25T23:10:03.125Z,2.25
2023-07-25T23:12:30.094Z,2.03
2023-07-25T23:14:57.114Z,2.20
2023-07-25T23:17:25.056Z,2.30
2023-07-25T23:19:52.047Z,2.60
2023-07-25T23:22:19.707Z,2.30
2023-07-25T23:24:46.796Z,2.30
2023-07-25T23:27:13.699Z,2.35
2023-07-25T23:29:40.554Z,2.30
2023-07-25T23:32:07.822Z,2.17
2023-07-25T23:34:50.397Z,2.50
2023-07-25T23:37:18.199Z,2.30
2023-07-25T23:39:45.333Z,2.10
2023-07-25T23:42:12.743Z,1.90
2023-07-25T23:44:39.748Z,2.10
2023-07-25T23:47:07.208Z,2.13
2023-07-25T23:49:34.876Z,1.90
2023-07-25T23:52:02.257Z,2.10
2023-07-25T23:54:29.112Z,2.00
2023-07-25T23:56:55.970Z,2.00
2023-07-25T23:59:22.929Z,1.90
